KBLI/BLI METAR and TAF weather

Enter ICAO airport designator
Station Type Date Time Source
KBLI METAR 2022/12/08 11:53 UTC NOAA

KBLI 081153Z AUTO 16017G35KT 10SM BKN029 BKN039 OVC046 07/03 A2985 RMK AO2 PK WND 18039/1135 SLP116 60000 70002 T00720033 10083 20067 55013


Station Type Date Time Source
KBLI Decoded METAR 2022/12/08 11:53 UTC NOAA

BELLINGHAM INTERNATIONAL AIRPORT, WA, United States (KBLI) 48-48N 122-32W 50M
Dec 08, 2022 - 06:53 AM EST / 2022.12.08 1153 UTC
Wind: from the SSE (160 degrees) at 20 MPH (17 KT) gusting to 40 MPH (35 KT):0
Visibility: 10 mile(s):0
Sky conditions: overcast
Temperature: 45.0 F (7.2 C)
Dew Point: 37.9 F (3.3 C)
Relative Humidity: 76%
Pressure (altimeter): 29.85 in. Hg (1010 hPa)
Pressure tendency: 0.04 inches (1.3 hPa) lower than three hours ago
ob: KBLI 081153Z AUTO 16017G35KT 10SM BKN029 BKN039 OVC046 07/03 A2985 RMK AO2 PK WND 18039/1135 SLP116 60000 70002 T00720033 10083 20067 55013
cycle: 12

Station Type Date Time Source
KBLI TAF 2022/12/08 12:39 UTC NOAA

TAF KBLI 081137Z 0812/0912 14015G32KT 6SM -RA BR SCT022 OVC030
FM081500 16012G20KT 5SM -SHRA BKN020 OVC030
FM082000 16011KT P6SM -SHRA OVC025
FM090200 16009KT P6SM -SHRA SCT025 BKN040
FM090900 15006KT P6SM VCSH OVC020

Example: see airport list